Time;durP1;ratioP1;P1;durP2;ratioP2;P2;SDS_P1;SDS_P2;PMS_P1;PMS_P2;Temp;Humidity;BMP_temperature;BMP_pressure;BME280_temperature;BME280_humidity;BME280_pressure;Samples;Min_cycle;Max_cycle;Signal;HPM_P1;HPM_P2
2022/11/05 00:10:46;;;;;;;;;;;6.10;99.90;;;;;;4981872;28;20731;-61
2022/11/05 00:18:41;;;;;;;;;;;6.10;99.90;;;;;;4986942;28;19921;-61
2022/11/05 00:25:12;;;;;;;;;;;6.10;99.90;;;;;;4989218;28;19913;-60
2022/11/05 00:26:37;;;;;;;;;;;6.10;99.90;;;;;;4984947;28;19921;-61
2022/11/05 00:29:02;;;;;;;;;;;5.80;99.90;;;;;;4990628;28;19914;-61
2022/11/05 00:31:28;;;;;;;;;;;6.10;99.90;;;;;;4988593;28;19949;-61
2022/11/05 00:33:53;;;;;;;;;;;6.10;99.90;;;;;;4989785;28;19914;-61
2022/11/05 00:36:19;;;;;;;;;;;6.10;99.90;;;;;;4990046;28;19968;-60
2022/11/05 00:38:44;;;;;;;;;;;6.10;99.90;;;;;;4988594;28;19918;-60
2022/11/05 00:41:10;;;;;;;;;;;6.10;99.90;;;;;;4991120;28;20032;-61
2022/11/05 00:46:20;;;;;;;;;;;6.10;99.90;;;;;;4983526;28;19920;-62
2022/11/05 00:51:30;;;;;;;;;;;6.10;99.90;;;;;;4987925;28;19975;-61
2022/11/05 00:53:55;;;;;;;;;;;6.20;99.90;;;;;;4990214;28;19953;-61
2022/11/05 00:56:21;;;;;;;;;;;6.10;99.90;;;;;;4989818;28;19921;-61
2022/11/05 00:58:47;;;;;;;;;;;6.10;99.90;;;;;;4988827;28;19922;-61
2022/11/05 01:01:16;;;;;;;;;;;6.10;99.90;;;;;;4989390;28;19913;-61
2022/11/05 01:03:44;;;;;;;;;;;6.80;99.90;;;;;;4981760;28;20333;-61
2022/11/05 01:06:14;;;;;;;;;;;6.00;99.90;;;;;;4990035;28;20532;-60
2022/11/05 01:08:41;;;;;;;;;;;6.10;99.90;;;;;;4988064;28;19925;-61
2022/11/05 01:11:11;;;;;;;;;;;6.10;99.90;;;;;;4990704;28;19918;-63
2022/11/05 01:13:38;;;;;;;;;;;6.10;99.90;;;;;;4986673;28;20365;-64
2022/11/05 01:16:08;;;;;;;;;;;5.60;99.90;;;;;;4989688;28;20345;-62
2022/11/05 01:18:35;;;;;;;;;;;6.20;99.90;;;;;;4988254;28;20013;-62
2022/11/05 01:21:08;;;;;;;;;;;6.10;99.90;;;;;;4988860;28;19933;-62
2022/11/05 01:23:34;;;;;;;;;;;6.20;99.90;;;;;;4984291;28;19942;-61
2022/11/05 01:25:59;;;;;;;;;;;6.10;99.90;;;;;;4989287;28;20404;-61
2022/11/05 01:28:25;;;;;;;;;;;4.00;99.90;;;;;;4988359;28;19968;-60
2022/11/05 01:30:58;;;;;;;;;;;6.30;99.90;;;;;;4988019;28;19964;-61
2022/11/05 01:33:24;;;;;;;;;;;6.20;99.90;;;;;;4989537;28;20334;-61
2022/11/05 01:35:50;;;;;;;;;;;6.20;99.90;;;;;;4986794;28;19941;-60
2022/11/05 01:38:17;;;;;;;;;;;6.20;99.90;;;;;;4987889;28;19917;-61
2022/11/05 01:40:42;;;;;;;;;;;6.20;99.90;;;;;;4988216;28;19949;-60
2022/11/05 01:43:28;;;;;;;;;;;6.30;99.90;;;;;;4989204;28;20377;-61
2022/11/05 01:45:56;;;;;;;;;;;7.70;99.90;;;;;;4986282;28;19921;-61
2022/11/05 01:48:24;;;;;;;;;;;6.20;99.90;;;;;;4988807;28;20358;-61
2022/11/05 01:50:58;;;;;;;;;;;6.20;99.90;;;;;;4987233;28;19972;-61
2022/11/05 01:53:35;;;;;;;;;;;6.30;99.90;;;;;;4990426;28;19914;-61
2022/11/05 01:56:06;;;;;;;;;;;5.20;99.90;;;;;;4986164;28;19914;-61
2022/11/05 01:59:07;;;;;;;;;;;6.40;99.90;;;;;;4988108;28;19914;-61
2022/11/05 02:01:33;;;;;;;;;;;6.40;99.90;;;;;;5002623;28;20262;-61
2022/11/05 02:04:00;;;;;;;;;;;6.30;99.90;;;;;;5011561;28;19913;-61
2022/11/05 02:06:31;;;;;;;;;;;6.30;99.90;;;;;;5005686;28;19918;-61
2022/11/05 02:09:10;;;;;;;;;;;7.30;99.90;;;;;;5016369;28;19922;-61
2022/11/05 02:11:35;;;;;;;;;;;6.20;99.90;;;;;;5013135;28;19928;-61
2022/11/05 02:14:01;;;;;;;;;;;6.30;99.90;;;;;;5006180;28;19917;-61
2022/11/05 02:16:29;;;;;;;;;;;6.30;99.90;;;;;;5006611;28;20293;-61
2022/11/05 02:19:02;;;;;;;;;;;6.30;99.90;;;;;;5011050;28;19913;-61
2022/11/05 02:21:47;;;;;;;;;;;6.30;99.90;;;;;;4999612;28;20051;-61
2022/11/05 02:24:22;;;;;;;;;;;6.30;99.90;;;;;;5014619;28;19956;-62
2022/11/05 02:27:08;;;;;;;;;;;6.30;99.90;;;;;;5007953;28;19921;-61
2022/11/05 02:29:43;;;;;;;;;;;6.30;99.90;;;;;;5010015;28;20429;-61
2022/11/05 02:32:17;;;;;;;;;;;7.90;99.90;;;;;;5006897;28;19967;-61
2022/11/05 02:35:01;;;;;;;;;;;6.20;99.90;;;;;;4986004;28;20021;-61
2022/11/05 02:37:36;;;;;;;;;;;6.20;99.90;;;;;;4980991;28;20250;-61
2022/11/05 02:40:04;;;;;;;;;;;6.20;99.90;;;;;;4988840;28;19953;-61
2022/11/05 02:42:37;;;;;;;;;;;6.30;99.90;;;;;;4987336;28;20443;-60
2022/11/05 02:45:15;;;;;;;;;;;6.30;99.90;;;;;;4993215;28;19921;-61
2022/11/05 02:47:41;;;;;;;;;;;6.40;99.90;;;;;;4991796;28;19921;-61
2022/11/05 02:50:06;;;;;;;;;;;6.40;99.90;;;;;;4991886;28;19921;-61
2022/11/05 02:52:36;;;;;;;;;;;6.60;99.90;;;;;;4991694;28;20318;-60
2022/11/05 02:55:10;;;;;;;;;;;6.60;99.90;;;;;;4993236;28;19914;-61
2022/11/05 02:57:36;;;;;;;;;;;6.50;99.90;;;;;;4990952;28;19918;-60
2022/11/05 03:00:06;;;;;;;;;;;6.60;99.90;;;;;;4993045;28;19921;-61
2022/11/05 03:02:32;;;;;;;;;;;5.10;99.90;;;;;;4990649;28;19914;-62
2022/11/05 03:04:58;;;;;;;;;;;6.60;99.90;;;;;;4993020;28;20293;-62
2022/11/05 03:07:35;;;;;;;;;;;6.60;99.90;;;;;;4993103;28;19961;-61
2022/11/05 03:10:10;;;;;;;;;;;6.70;99.90;;;;;;4987431;28;19929;-61
2022/11/05 03:12:45;;;;;;;;;;;6.70;99.90;;;;;;4988411;28;19965;-62
2022/11/05 03:15:11;;;;;;;;;;;6.80;99.90;;;;;;4988089;28;19992;-62
2022/11/05 03:17:40;;;;;;;;;;;6.80;99.90;;;;;;4991499;28;19918;-62
2022/11/05 03:20:14;;;;;;;;;;;6.80;99.90;;;;;;4992662;28;20112;-64
2022/11/05 03:22:46;;;;;;;;;;;6.80;99.90;;;;;;4981573;28;20350;-61
2022/11/05 03:25:14;;;;;;;;;;;6.80;99.90;;;;;;4991977;28;20333;-63
2022/11/05 03:27:44;;;;;;;;;;;5.80;99.90;;;;;;4989122;28;19963;-61
2022/11/05 03:30:10;;;;;;;;;;;6.60;99.90;;;;;;4992615;28;19959;-62
2022/11/05 03:32:42;;;;;;;;;;;6.70;99.90;;;;;;4989537;28;19932;-61
2022/11/05 03:35:19;;;;;;;;;;;6.60;99.90;;;;;;4991862;28;20065;-61
2022/11/05 03:37:46;;;;;;;;;;;6.70;99.90;;;;;;4990552;28;20350;-60
2022/11/05 03:40:13;;;;;;;;;;;6.70;99.90;;;;;;4992357;28;19921;-60
2022/11/05 03:42:42;;;;;;;;;;;6.80;99.90;;;;;;4987845;28;20516;-60
2022/11/05 03:45:09;;;;;;;;;;;6.80;99.90;;;;;;4991968;28;20004;-61
2022/11/05 03:47:37;;;;;;;;;;;5.70;99.90;;;;;;4989774;28;19914;-60
2022/11/05 03:50:14;;;;;;;;;;;6.60;99.90;;;;;;4992002;28;19918;-61
2022/11/05 03:52:45;;;;;;;;;;;6.60;99.90;;;;;;4988086;28;20012;-61
2022/11/05 03:55:11;;;;;;;;;;;6.60;99.90;;;;;;4991625;28;20370;-61
2022/11/05 03:57:40;;;;;;;;;;;6.60;99.90;;;;;;4989698;28;20286;-61
2022/11/05 04:00:07;;;;;;;;;;;6.50;99.90;;;;;;4991773;28;20386;-61
2022/11/05 04:02:32;;;;;;;;;;;6.50;99.90;;;;;;4990148;28;19921;-61
2022/11/05 04:04:58;;;;;;;;;;;6.40;99.90;;;;;;4990493;28;19922;-60
2022/11/05 04:18:21;;;;;;;;;;;6.30;99.90;;;;;;4991992;28;19921;-60
2022/11/05 04:26:15;;;;;;;;;;;6.00;99.90;;;;;;4984615;28;19941;-61
2022/11/05 04:31:24;;;;;;;;;;;6.10;99.90;;;;;;4990888;28;19928;-60
2022/11/05 04:33:50;;;;;;;;;;;6.10;99.90;;;;;;4989921;28;19914;-61
2022/11/05 04:36:16;;;;;;;;;;;6.00;99.90;;;;;;4991451;28;19918;-60
2022/11/05 04:38:41;;;;;;;;;;;6.00;99.90;;;;;;4989421;28;19914;-60
2022/11/05 04:41:25;;;;;;;;;;;6.10;99.90;;;;;;4990676;28;19914;-60
2022/11/05 04:43:51;;;;;;;;;;;6.00;99.90;;;;;;5019750;22;19993;-61
2022/11/05 04:46:17;;;;;;;;;;;6.00;99.90;;;;;;5029532;28;19972;-61
2022/11/05 04:48:42;;;;;;;;;;;5.90;99.90;;;;;;5027660;28;19924;-61
2022/11/05 04:51:08;;;;;;;;;;;6.00;99.90;;;;;;5028264;28;19917;-61
2022/11/05 04:53:33;;;;;;;;;;;5.90;99.90;;;;;;5028039;28;19943;-61
2022/11/05 04:56:28;;;;;;;;;;;2.60;99.90;;;;;;5030582;28;19913;-61
2022/11/05 04:58:53;;;;;;;;;;;5.90;99.90;;;;;;5029636;28;19921;-61
2022/11/05 05:01:21;;;;;;;;;;;5.00;99.90;;;;;;5026575;28;19913;-61
2022/11/05 05:03:47;;;;;;;;;;;5.90;99.90;;;;;;5027966;28;19913;-61
2022/11/05 05:06:13;;;;;;;;;;;5.90;99.90;;;;;;5030491;28;19920;-61
2022/11/05 05:08:39;;;;;;;;;;;6.00;99.90;;;;;;5027897;28;19913;-61
2022/11/05 05:11:05;;;;;;;;;;;5.90;99.90;;;;;;5030241;28;19927;-61
2022/11/05 05:13:31;;;;;;;;;;;5.90;99.90;;;;;;5027127;28;20383;-61
2022/11/05 05:15:57;;;;;;;;;;;5.90;99.90;;;;;;5030012;28;19914;-61
2022/11/05 05:18:25;;;;;;;;;;;5.90;99.90;;;;;;5028711;28;20007;-61
2022/11/05 05:23:34;;;;;;;;;;;5.90;99.90;;;;;;5028090;28;19967;-61
2022/11/05 05:26:00;;;;;;;;;;;8.60;99.90;;;;;;5029866;28;19917;-61
2022/11/05 05:28:26;;;;;;;;;;;5.90;99.90;;;;;;5029314;28;19920;-60
2022/11/05 05:30:51;;;;;;;;;;;6.00;99.90;;;;;;5028181;28;19917;-60
2022/11/05 05:33:17;;;;;;;;;;;5.90;99.90;;;;;;5026739;28;19917;-61
2022/11/05 05:35:43;;;;;;;;;;;5.90;99.90;;;;;;5028252;28;20372;-61
2022/11/05 05:38:08;;;;;;;;;;;5.90;99.90;;;;;;5029786;28;19920;-61
2022/11/05 05:40:34;;;;;;;;;;;5.80;99.90;;;;;;5028248;28;19913;-62
2022/11/05 05:43:00;;;;;;;;;;;5.90;99.90;;;;;;5024666;28;20284;-61
2022/11/05 05:45:25;;;;;;;;;;;5.90;99.90;;;;;;5018305;28;19959;-61
2022/11/05 05:47:54;;;;;;;;;;;6.00;99.90;;;;;;5027376;28;19921;-61
2022/11/05 05:50:19;;;;;;;;;;;5.90;99.90;;;;;;5017424;28;20384;-62
2022/11/05 05:52:45;;;;;;;;;;;5.90;99.90;;;;;;5026867;28;19921;-61
2022/11/05 05:55:11;;;;;;;;;;;6.00;99.90;;;;;;5029124;28;19913;-61
2022/11/05 05:57:37;;;;;;;;;;;6.00;99.90;;;;;;5027203;28;20383;-61
2022/11/05 06:00:04;;;;;;;;;;;6.10;99.90;;;;;;5027429;28;20038;-61
2022/11/05 06:02:30;;;;;;;;;;;6.10;99.90;;;;;;5026327;28;20284;-61
2022/11/05 06:04:56;;;;;;;;;;;6.10;99.90;;;;;;5029650;28;19920;-61
2022/11/05 06:07:21;;;;;;;;;;;6.10;99.90;;;;;;5029895;28;19917;-61
2022/11/05 06:09:47;;;;;;;;;;;6.20;99.90;;;;;;5022556;28;19928;-61
2022/11/05 06:12:13;;;;;;;;;;;6.20;99.90;;;;;;5027817;28;20324;-61
2022/11/05 06:14:38;;;;;;;;;;;6.20;99.90;;;;;;5027944;28;19945;-61
2022/11/05 06:17:05;;;;;;;;;;;6.30;99.90;;;;;;5029513;28;19913;-61
2022/11/05 06:19:31;;;;;;;;;;;6.10;99.90;;;;;;5031358;28;19913;-61
2022/11/05 06:21:56;;;;;;;;;;;6.30;99.90;;;;;;5028608;28;19968;-61
2022/11/05 06:24:22;;;;;;;;;;;6.40;99.90;;;;;;5030350;28;19921;-61
2022/11/05 06:26:48;;;;;;;;;;;6.70;99.90;;;;;;5026209;28;20392;-60
2022/11/05 06:29:13;;;;;;;;;;;6.40;99.90;;;;;;5030746;28;19917;-61
2022/11/05 06:31:39;;;;;;;;;;;6.60;99.90;;;;;;5030172;28;20369;-61
2022/11/05 06:34:04;;;;;;;;;;;6.60;99.90;;;;;;5032735;28;19913;-61
2022/11/05 06:36:32;;;;;;;;;;;6.70;99.90;;;;;;5030716;28;19917;-62
2022/11/05 06:38:58;;;;;;;;;;;6.70;99.90;;;;;;5031376;28;19948;-62
2022/11/05 06:41:23;;;;;;;;;;;3.70;99.90;;;;;;5031635;28;19944;-61
2022/11/05 06:43:49;;;;;;;;;;;6.70;99.90;;;;;;5025202;28;20008;-62
2022/11/05 06:46:14;;;;;;;;;;;6.70;99.90;;;;;;5032621;28;19913;-62
2022/11/05 06:48:40;;;;;;;;;;;6.80;99.90;;;;;;5027148;28;19917;-62
2022/11/05 06:51:06;;;;;;;;;;;6.80;99.90;;;;;;5032641;28;19967;-61
2022/11/05 06:53:33;;;;;;;;;;;6.80;99.90;;;;;;5022860;28;19917;-66
2022/11/05 06:56:02;;;;;;;;;;;6.90;99.90;;;;;;5030279;28;19913;-61
2022/11/05 06:58:29;;;;;;;;;;;6.90;99.90;;;;;;5024014;28;19920;-60
2022/11/05 07:00:59;;;;;;;;;;;7.00;99.90;;;;;;5028064;28;19913;-60
2022/11/05 07:03:24;;;;;;;;;;;7.00;99.90;;;;;;5032023;28;19941;-61
2022/11/05 07:05:50;;;;;;;;;;;7.00;99.90;;;;;;5027220;28;20007;-61
2022/11/05 07:08:15;;;;;;;;;;;7.00;99.90;;;;;;5027207;28;19925;-61
2022/11/05 07:10:41;;;;;;;;;;;4.90;99.90;;;;;;5028763;28;19960;-60
2022/11/05 07:13:07;;;;;;;;;;;7.10;99.90;;;;;;5028627;28;20361;-61
2022/11/05 07:15:32;;;;;;;;;;;7.10;99.90;;;;;;5024664;28;19917;-62
2022/11/05 07:17:59;;;;;;;;;;;7.10;99.90;;;;;;5032245;28;19917;-61
2022/11/05 07:20:25;;;;;;;;;;;7.20;99.90;;;;;;5032290;28;19917;-61
2022/11/05 07:22:51;;;;;;;;;;;7.20;99.90;;;;;;5028429;28;20373;-61
2022/11/05 07:25:17;;;;;;;;;;;7.20;99.90;;;;;;5028089;28;19922;-61
2022/11/05 07:27:43;;;;;;;;;;;7.30;99.90;;;;;;5029755;28;19924;-61
2022/11/05 07:30:09;;;;;;;;;;;7.40;99.90;;;;;;5030818;28;20021;-61
2022/11/05 07:32:39;;;;;;;;;;;7.50;99.90;;;;;;5029268;28;20346;-61
2022/11/05 07:35:05;;;;;;;;;;;7.40;99.90;;;;;;5032010;28;19913;-62
2022/11/05 07:37:31;;;;;;;;;;;7.50;99.90;;;;;;5029649;28;19956;-61
2022/11/05 07:39:57;;;;;;;;;;;7.50;99.90;;;;;;5030435;28;19971;-60
2022/11/05 07:42:23;;;;;;;;;;;7.50;99.90;;;;;;5029929;28;19917;-62
2022/11/05 07:44:48;;;;;;;;;;;7.50;99.90;;;;;;5030167;28;19921;-61
2022/11/05 07:47:14;;;;;;;;;;;7.50;99.90;;;;;;5031305;28;19917;-62
2022/11/05 07:49:39;;;;;;;;;;;7.50;99.90;;;;;;5029110;28;19913;-63
2022/11/05 07:52:05;;;;;;;;;;;7.60;99.90;;;;;;5030658;28;19957;-62
2022/11/05 07:54:30;;;;;;;;;;;7.60;99.90;;;;;;5028332;28;20327;-62
2022/11/05 07:56:56;;;;;;;;;;;7.70;99.90;;;;;;5031211;28;20016;-62
2022/11/05 07:59:22;;;;;;;;;;;7.60;99.90;;;;;;5027527;28;19932;-62
2022/11/05 08:01:47;;;;;;;;;;;7.70;99.90;;;;;;5026824;28;20917;-61
2022/11/05 08:04:13;;;;;;;;;;;9.00;99.90;;;;;;5027032;28;19959;-62
2022/11/05 08:06:38;;;;;;;;;;;7.80;99.90;;;;;;5029291;28;19974;-62
2022/11/05 08:09:04;;;;;;;;;;;7.90;99.90;;;;;;5029698;28;19920;-62
2022/11/05 08:11:31;;;;;;;;;;;7.90;99.90;;;;;;5028189;28;20296;-62
2022/11/05 08:13:56;;;;;;;;;;;7.80;99.90;;;;;;5029189;28;20003;-62
2022/11/05 08:16:22;;;;;;;;;;;7.90;99.90;;;;;;5018778;28;20430;-62
2022/11/05 08:18:48;;;;;;;;;;;7.90;99.90;;;;;;5028933;28;21334;-61
2022/11/05 08:21:13;;;;;;;;;;;7.90;99.90;;;;;;5025868;28;20348;-63
2022/11/05 08:23:41;;;;;;;;;;;7.90;99.90;;;;;;5024861;28;19975;-63
2022/11/05 08:26:06;;;;;;;;;;;7.90;99.90;;;;;;5030734;28;19920;-61
2022/11/05 08:28:32;;;;;;;;;;;10.70;99.90;;;;;;5015299;28;19917;-62
2022/11/05 08:30:57;;;;;;;;;;;8.00;99.90;;;;;;5026437;28;19964;-62
2022/11/05 08:33:24;;;;;;;;;;;8.10;99.90;;;;;;5024745;28;19924;-63
2022/11/05 08:35:49;;;;;;;;;;;8.20;99.90;;;;;;5027582;28;20016;-62
2022/11/05 08:38:16;;;;;;;;;;;8.30;99.90;;;;;;5029653;28;19987;-62
2022/11/05 08:40:43;;;;;;;;;;;8.40;99.90;;;;;;5019763;28;19921;-61
2022/11/05 08:43:10;;;;;;;;;;;8.50;99.90;;;;;;5021825;28;19929;-61
2022/11/05 08:45:36;;;;;;;;;;;8.50;99.90;;;;;;5021648;28;20428;-61
2022/11/05 08:48:03;;;;;;;;;;;12.00;99.90;;;;;;5019669;28;19920;-62
2022/11/05 08:50:29;;;;;;;;;;;8.40;99.90;;;;;;5021445;28;19913;-61
2022/11/05 08:52:54;;;;;;;;;;;8.60;99.90;;;;;;5029206;28;19927;-62
2022/11/05 08:55:20;;;;;;;;;;;8.60;99.90;;;;;;5020459;28;20400;-63
2022/11/05 08:57:46;;;;;;;;;;;8.60;99.90;;;;;;5023006;28;19921;-62
2022/11/05 09:00:12;;;;;;;;;;;8.80;99.90;;;;;;5018953;28;20289;-62
2022/11/05 09:02:37;;;;;;;;;;;8.90;99.90;;;;;;5025181;28;20002;-63
2022/11/05 09:05:03;;;;;;;;;;;8.90;99.90;;;;;;5026901;28;20342;-63
2022/11/05 09:07:28;;;;;;;;;;;8.90;99.90;;;;;;5021849;28;19913;-62
2022/11/05 09:09:54;;;;;;;;;;;8.90;99.90;;;;;;5026543;28;19948;-63
2022/11/05 09:12:19;;;;;;;;;;;8.90;99.90;;;;;;5021632;28;20365;-62
2022/11/05 09:14:45;;;;;;;;;;;8.90;99.90;;;;;;5021129;28;19921;-62
2022/11/05 09:17:17;;;;;;;;;;;9.00;99.90;;;;;;5024932;28;19963;-62
2022/11/05 09:19:43;;;;;;;;;;;9.00;99.90;;;;;;5019446;28;19928;-62
2022/11/05 09:22:11;;;;;;;;;;;9.10;99.90;;;;;;5024258;28;19913;-63
2022/11/05 09:24:40;;;;;;;;;;;9.20;99.90;;;;;;5024862;28;19913;-64
2022/11/05 09:27:10;;;;;;;;;;;9.30;99.90;;;;;;5026642;28;19913;-63
2022/11/05 09:29:36;;;;;;;;;;;9.50;99.90;;;;;;5020930;28;19917;-63
2022/11/05 09:32:02;;;;;;;;;;;9.70;99.90;;;;;;5025852;28;19932;-63
2022/11/05 09:34:28;;;;;;;;;;;10.00;99.90;;;;;;5024451;28;20343;-62
2022/11/05 09:36:55;;;;;;;;;;;10.20;99.90;;;;;;5025579;28;20336;-62
2022/11/05 09:39:21;;;;;;;;;;;10.30;99.90;;;;;;5022182;28;19924;-61
2022/11/05 09:41:47;;;;;;;;;;;10.20;99.90;;;;;;5019116;28;19913;-65
2022/11/05 09:44:20;;;;;;;;;;;10.20;99.90;;;;;;5022138;28;20011;-63
2022/11/05 09:46:49;;;;;;;;;;;10.10;99.90;;;;;;5022036;28;19936;-62
2022/11/05 09:49:26;;;;;;;;;;;10.00;99.90;;;;;;5024391;28;19917;-62
2022/11/05 09:51:53;;;;;;;;;;;10.00;99.90;;;;;;5022634;28;19929;-63
2022/11/05 09:54:20;;;;;;;;;;;10.10;99.90;;;;;;5022131;28;20043;-62
2022/11/05 09:56:46;;;;;;;;;;;10.10;99.90;;;;;;5026422;28;19957;-63
2022/11/05 09:59:20;;;;;;;;;;;10.10;99.90;;;;;;5030322;28;20352;-60
2022/11/05 10:01:46;;;;;;;;;;;10.20;99.90;;;;;;5028309;28;20357;-61
2022/11/05 10:04:24;;;;;;;;;;;10.20;99.90;;;;;;5031646;28;20372;-63
2022/11/05 10:07:01;;;;;;;;;;;10.40;99.90;;;;;;5028391;28;19948;-61
2022/11/05 10:09:33;;;;;;;;;;;10.40;99.90;;;;;;5033727;28;19913;-61
2022/11/05 10:12:04;;;;;;;;;;;10.80;99.90;;;;;;5020396;28;19921;-64
2022/11/05 10:14:31;;;;;;;;;;;11.20;99.90;;;;;;5029568;28;19913;-63
2022/11/05 10:17:14;;;;;;;;;;;11.60;99.90;;;;;;5033241;28;19913;-61
2022/11/05 10:19:46;;;;;;;;;;;11.90;99.90;;;;;;5027370;28;20011;-60
2022/11/05 10:22:15;;;;;;;;;;;12.10;99.90;;;;;;5032040;28;20300;-60
2022/11/05 10:24:42;;;;;;;;;;;12.20;99.90;;;;;;5029785;28;20492;-62
2022/11/05 10:27:13;;;;;;;;;;;12.30;99.90;;;;;;5032840;28;19913;-61
2022/11/05 10:29:40;;;;;;;;;;;12.40;99.90;;;;;;5025638;28;19913;-62
2022/11/05 10:32:06;;;;;;;;;;;12.50;99.90;;;;;;5031369;28;19944;-62
2022/11/05 10:34:33;;;;;;;;;;;12.60;99.90;;;;;;5026610;28;19914;-62
2022/11/05 10:36:59;;;;;;;;;;;12.60;99.90;;;;;;5032605;28;19982;-66
2022/11/05 10:39:26;;;;;;;;;;;12.50;99.90;;;;;;5032856;28;20415;-63
2022/11/05 10:41:58;;;;;;;;;;;12.60;99.90;;;;;;5030767;28;19913;-64
2022/11/05 10:44:29;;;;;;;;;;;12.50;99.90;;;;;;5031613;28;20308;-63
2022/11/05 10:47:10;;;;;;;;;;;12.60;99.90;;;;;;5032948;28;20054;-63
2022/11/05 10:49:36;;;;;;;;;;;12.60;99.90;;;;;;5027622;28;19958;-63
2022/11/05 10:52:08;;;;;;;;;;;12.60;99.90;;;;;;5032325;28;19920;-64
2022/11/05 10:54:34;;;;;;;;;;;12.70;99.90;;;;;;5026148;28;19913;-63
2022/11/05 10:57:20;;;;;;;;;;;12.60;99.90;;;;;;5032013;28;20262;-63
2022/11/05 10:59:45;;;;;;;;;;;12.70;99.90;;;;;;5027115;28;20056;-63
2022/11/05 11:02:22;;;;;;;;;;;12.60;99.90;;;;;;5032216;28;19978;-64
2022/11/05 11:04:51;;;;;;;;;;;12.70;99.90;;;;;;5026517;28;19922;-64
2022/11/05 11:07:20;;;;;;;;;;;12.50;99.90;;;;;;5027461;28;19913;-63
2022/11/05 11:09:47;;;;;;;;;;;12.40;99.90;;;;;;5030569;28;19913;-65
2022/11/05 11:12:14;;;;;;;;;;;12.50;99.90;;;;;;5032126;28;19948;-63
2022/11/05 11:14:40;;;;;;;;;;;12.40;99.90;;;;;;5028521;28;19935;-62
2022/11/05 11:17:26;;;;;;;;;;;12.40;99.90;;;;;;5032034;28;20337;-64
2022/11/05 11:20:11;;;;;;;;;;;12.40;99.90;;;;;;5024791;28;19995;-64
2022/11/05 11:22:37;;;;;;;;;;;12.50;99.90;;;;;;5030144;28;20380;-64
2022/11/05 11:25:17;;;;;;;;;;;12.50;99.90;;;;;;5029486;28;19939;-64
2022/11/05 11:27:43;;;;;;;;;;;12.50;99.90;;;;;;5028900;28;20448;-64
2022/11/05 11:30:16;;;;;;;;;;;12.60;99.90;;;;;;5032074;28;19964;-64
2022/11/05 11:32:41;;;;;;;;;;;12.60;99.90;;;;;;5028176;28;19924;-64
2022/11/05 11:35:16;;;;;;;;;;;12.70;99.90;;;;;;5026724;28;19983;-63
2022/11/05 11:37:42;;;;;;;;;;;12.80;99.90;;;;;;5026861;28;19913;-64
2022/11/05 11:40:18;;;;;;;;;;;12.90;99.90;;;;;;5031554;28;20007;-62
2022/11/05 11:42:45;;;;;;;;;;;12.90;99.90;;;;;;5029210;28;19963;-63
2022/11/05 11:45:24;;;;;;;;;;;12.90;99.90;;;;;;5030868;28;19921;-62
2022/11/05 11:47:50;;;;;;;;;;;12.90;99.90;;;;;;5028565;28;19940;-62
2022/11/05 11:50:32;;;;;;;;;;;12.90;99.90;;;;;;5031690;28;20334;-64
2022/11/05 11:53:16;;;;;;;;;;;12.90;99.90;;;;;;5028750;28;19941;-63
2022/11/05 11:55:54;;;;;;;;;;;12.90;99.90;;;;;;5019816;28;19913;-62
2022/11/05 11:58:33;;;;;;;;;;;12.90;99.90;;;;;;5029133;28;19913;-62
2022/11/05 12:01:08;;;;;;;;;;;12.90;99.90;;;;;;5030073;28;19913;-63
2022/11/05 12:03:52;;;;;;;;;;;12.90;99.90;;;;;;5023335;28;19917;-63
2022/11/05 12:06:20;;;;;;;;;;;12.90;99.90;;;;;;5023700;28;19914;-62
2022/11/05 12:09:04;;;;;;;;;;;13.00;99.90;;;;;;5029908;28;19928;-63
2022/11/05 12:11:43;;;;;;;;;;;13.10;99.90;;;;;;5027177;28;20007;-63
2022/11/05 12:14:14;;;;;;;;;;;13.20;99.90;;;;;;5030967;28;20310;-62
2022/11/05 12:16:59;;;;;;;;;;;13.20;99.90;;;;;;5025700;28;19972;-63
2022/11/05 12:19:45;;;;;;;;;;;13.20;99.90;;;;;;5028471;28;19952;-62
2022/11/05 12:22:23;;;;;;;;;;;13.10;99.90;;;;;;5021089;28;19913;-63
2022/11/05 12:25:15;;;;;;;;;;;13.00;99.90;;;;;;5029717;28;19956;-64
2022/11/05 12:27:47;;;;;;;;;;;13.00;99.90;;;;;;5018845;28;19964;-64
2022/11/05 12:30:15;;;;;;;;;;;12.90;99.90;;;;;;5030797;28;19919;-66
2022/11/05 12:32:55;;;;;;;;;;;13.00;99.90;;;;;;5027652;28;20266;-64
2022/11/05 12:35:38;;;;;;;;;;;12.80;99.90;;;;;;5030008;28;19964;-65
2022/11/05 12:38:21;;;;;;;;;;;12.60;99.90;;;;;;5029523;28;19924;-65
2022/11/05 12:40:50;;;;;;;;;;;12.40;99.90;;;;;;5028179;28;19913;-65
2022/11/05 12:43:40;;;;;;;;;;;12.30;99.90;;;;;;5029396;28;19917;-65
2022/11/05 12:46:24;;;;;;;;;;;12.30;99.90;;;;;;5029100;28;19925;-64
2022/11/05 12:48:57;;;;;;;;;;;12.40;99.90;;;;;;5028962;28;19917;-63
2022/11/05 12:51:41;;;;;;;;;;;12.40;99.90;;;;;;5028057;28;19917;-66
2022/11/05 12:54:22;;;;;;;;;;;12.40;99.90;;;;;;5023251;28;19917;-64
2022/11/05 12:56:49;;;;;;;;;;;12.40;99.90;;;;;;5026961;28;19917;-62
2022/11/05 12:59:15;;;;;;;;;;;12.40;99.90;;;;;;5028952;28;20002;-66
2022/11/05 13:01:43;;;;;;;;;;;12.40;99.90;;;;;;5028038;28;19979;-64
2022/11/05 13:04:15;;;;;;;;;;;12.40;99.90;;;;;;5028811;28;19916;-62
2022/11/05 13:06:44;;;;;;;;;;;12.40;99.90;;;;;;5028564;28;19917;-64
2022/11/05 13:09:18;;;;;;;;;;;12.50;99.90;;;;;;5029631;28;19913;-63
2022/11/05 13:12:04;;;;;;;;;;;12.50;99.90;;;;;;5026971;28;19933;-61
2022/11/05 13:14:42;;;;;;;;;;;12.60;99.90;;;;;;5018614;28;19921;-61
2022/11/05 13:17:28;;;;;;;;;;;12.70;99.90;;;;;;5028131;28;20325;-63
2022/11/05 13:19:57;;;;;;;;;;;12.80;99.90;;;;;;5022931;28;20411;-60
2022/11/05 13:22:33;;;;;;;;;;;12.90;99.90;;;;;;5027760;28;19917;-62
2022/11/05 13:25:03;;;;;;;;;;;13.00;99.90;;;;;;5020224;28;20384;-64
2022/11/05 13:27:48;;;;;;;;;;;12.90;99.90;;;;;;5027051;28;19920;-64
2022/11/05 13:30:20;;;;;;;;;;;12.90;99.90;;;;;;5019663;28;20297;-64
2022/11/05 13:32:54;;;;;;;;;;;12.90;99.90;;;;;;5024430;28;19975;-66
2022/11/05 13:35:26;;;;;;;;;;;12.90;99.90;;;;;;5028705;28;19921;-65
2022/11/05 13:40:42;;;;;;;;;;;13.00;99.90;;;;;;5027453;28;20395;-65
2022/11/05 13:43:08;;;;;;;;;;;13.10;99.90;;;;;;5026070;28;20415;-65
2022/11/05 13:45:52;;;;;;;;;;;13.10;99.90;;;;;;5027657;28;20000;-63
2022/11/05 13:48:36;;;;;;;;;;;13.10;99.90;;;;;;5029407;28;19920;-65
2022/11/05 13:51:19;;;;;;;;;;;13.10;99.90;;;;;;5028936;28;20396;-65
2022/11/05 13:54:00;;;;;;;;;;;13.10;99.90;;;;;;5020859;28;20273;-65
2022/11/05 13:56:39;;;;;;;;;;;13.10;99.90;;;;;;5028911;28;20016;-64
2022/11/05 13:59:14;;;;;;;;;;;13.00;99.90;;;;;;5029454;28;20016;-66
2022/11/05 14:01:56;;;;;;;;;;;13.00;99.90;;;;;;5028238;28;19920;-66
2022/11/05 14:04:28;;;;;;;;;;;12.90;99.90;;;;;;5026501;28;20004;-66
2022/11/05 14:07:03;;;;;;;;;;;12.90;99.90;;;;;;5028175;28;19913;-66
2022/11/05 14:09:29;;;;;;;;;;;12.90;99.90;;;;;;5029277;28;19913;-66
2022/11/05 14:11:57;;;;;;;;;;;13.50;99.90;;;;;;5028412;28;19924;-66
2022/11/05 14:14:27;;;;;;;;;;;12.90;99.90;;;;;;5027740;28;19913;-66
2022/11/05 14:17:11;;;;;;;;;;;12.90;99.90;;;;;;5027371;28;19917;-66
2022/11/05 14:19:58;;;;;;;;;;;12.80;99.90;;;;;;5019203;28;20345;-69
2022/11/05 14:22:29;;;;;;;;;;;12.80;99.90;;;;;;5019451;28;19917;-68
2022/11/05 14:24:55;;;;;;;;;;;12.80;99.90;;;;;;5029260;28;19913;-67
2022/11/05 14:27:21;;;;;;;;;;;12.80;99.90;;;;;;5028850;28;19920;-67
2022/11/05 14:29:48;;;;;;;;;;;12.70;99.90;;;;;;5026426;28;19940;-65
2022/11/05 14:32:16;;;;;;;;;;;12.70;99.90;;;;;;5026775;28;19925;-70
2022/11/05 14:34:42;;;;;;;;;;;12.60;99.90;;;;;;5018957;28;19913;-65
2022/11/05 14:37:11;;;;;;;;;;;12.70;99.90;;;;;;5027880;28;19920;-68
2022/11/05 14:39:37;;;;;;;;;;;12.70;99.90;;;;;;5023884;28;19913;-65
2022/11/05 14:42:09;;;;;;;;;;;12.70;99.90;;;;;;5032581;28;20000;-66
2022/11/05 14:44:35;;;;;;;;;;;12.80;99.90;;;;;;5029205;28;19951;-65
2022/11/05 14:47:02;;;;;;;;;;;12.80;99.90;;;;;;5032681;28;19963;-65
2022/11/05 14:49:29;;;;;;;;;;;12.80;99.90;;;;;;5030960;28;20007;-64
2022/11/05 14:51:57;;;;;;;;;;;12.80;99.90;;;;;;5032424;28;20357;-65
2022/11/05 14:54:23;;;;;;;;;;;12.80;99.90;;;;;;5032460;28;20375;-66
2022/11/05 14:57:09;;;;;;;;;;;12.70;99.90;;;;;;5030510;28;19913;-67
2022/11/05 14:59:56;;;;;;;;;;;12.70;99.90;;;;;;5025425;28;19920;-69
2022/11/05 15:02:45;;;;;;;;;;;12.70;99.90;;;;;;5028620;28;19920;-64
2022/11/05 15:05:29;;;;;;;;;;;12.70;99.90;;;;;;5031085;28;19935;-66
2022/11/05 15:07:55;;;;;;;;;;;12.70;99.90;;;;;;5031132;28;20321;-68
2022/11/05 15:10:22;;;;;;;;;;;12.70;99.90;;;;;;5032495;28;19920;-68
2022/11/05 15:12:52;;;;;;;;;;;12.80;99.90;;;;;;5031167;28;19928;-66
2022/11/05 15:15:22;;;;;;;;;;;12.80;99.90;;;;;;5030531;28;20039;-64
2022/11/05 15:17:57;;;;;;;;;;;12.80;99.90;;;;;;5031212;28;20241;-69
2022/11/05 15:20:28;;;;;;;;;;;12.90;99.90;;;;;;5028041;28;20323;-69
2022/11/05 15:22:58;;;;;;;;;;;12.90;99.90;;;;;;5031793;28;19924;-68
2022/11/05 15:25:23;;;;;;;;;;;13.00;99.90;;;;;;5021280;28;19921;-68
2022/11/05 15:27:49;;;;;;;;;;;13.00;99.90;;;;;;5029927;28;20007;-71